createdAt,value
2023-02-14T00:01:54.599Z,100125.45
2023-02-14T00:04:23.269Z,100122.87
2023-02-14T00:06:53.038Z,100118.77
2023-02-14T00:09:22.548Z,100117.07
2023-02-14T00:11:53.197Z,100115.30
2023-02-14T00:14:40.304Z,100110.41
2023-02-14T00:17:08.688Z,100100.10
2023-02-14T00:19:38.376Z,100097.46
2023-02-14T00:22:06.860Z,100087.16
2023-02-14T00:24:35.441Z,100078.05
2023-02-14T00:27:04.185Z,100064.81
2023-02-14T00:29:33.334Z,100062.71
2023-02-14T00:32:03.523Z,100051.52
2023-02-14T00:34:33.604Z,100039.97
2023-02-14T00:37:03.410Z,100037.84
2023-02-14T00:39:32.372Z,100030.14
2023-02-14T00:42:00.852Z,100028.37
2023-02-14T00:44:29.850Z,100018.30
2023-02-14T00:46:58.978Z,100015.09
2023-02-14T00:49:27.448Z,100011.17
2023-02-14T00:51:56.020Z,100002.35
2023-02-14T00:54:25.796Z,100000.30
2023-02-14T00:56:54.198Z,99991.13
2023-02-14T00:59:23.054Z,99984.91
2023-02-14T01:01:51.365Z,99980.90
2023-02-14T01:04:19.882Z,99976.85
2023-02-14T01:06:48.869Z,99974.23
2023-02-14T01:09:17.451Z,99966.54
2023-02-14T01:11:46.414Z,99962.77
2023-02-14T01:14:16.661Z,99958.68
2023-02-14T01:16:45.866Z,99960.06
2023-02-14T01:19:15.132Z,99955.82
2023-02-14T01:21:45.367Z,99947.83
2023-02-14T01:24:14.377Z,99945.45
2023-02-14T01:26:44.981Z,99942.13
2023-02-14T01:29:14.287Z,99941.02
2023-02-14T01:31:43.530Z,99933.35
2023-02-14T01:34:12.220Z,99927.39
2023-02-14T01:36:41.161Z,99922.49
2023-02-14T01:39:13.753Z,99915.96
2023-02-14T01:41:43.059Z,99914.61
2023-02-14T01:44:14.613Z,99906.14
2023-02-14T01:46:44.309Z,99902.80
2023-02-14T01:49:28.089Z,99897.42
2023-02-14T01:52:00.635Z,99889.41
2023-02-14T01:54:31.493Z,99889.27
2023-02-14T01:57:02.105Z,99876.61
2023-02-14T01:59:34.057Z,99872.54
2023-02-14T02:02:02.733Z,99870.35
2023-02-14T02:04:36.239Z,99870.02
2023-02-14T02:07:10.260Z,99864.59
2023-02-14T02:10:06.421Z,99860.55
2023-02-14T02:12:35.911Z,99854.18
2023-02-14T02:15:04.844Z,99853.20
2023-02-14T02:17:39.811Z,99854.95
2023-02-14T02:20:40.345Z,99851.33
2023-02-14T02:23:12.403Z,99850.86
2023-02-14T02:25:59.565Z,99853.23
2023-02-14T02:28:40.293Z,99849.02
2023-02-14T02:31:16.653Z,99846.12
2023-02-14T02:34:06.890Z,99840.13
2023-02-14T02:36:48.520Z,99833.41
2023-02-14T02:39:27.523Z,99826.33
2023-02-14T02:42:20.149Z,99816.42
2023-02-14T02:44:56.256Z,99813.98
2023-02-14T02:47:36.806Z,99808.22
2023-02-14T02:50:41.934Z,99802.97
2023-02-14T02:53:29.517Z,99795.24
2023-02-14T02:56:19.705Z,99791.39
2023-02-14T02:59:06.924Z,99792.61
2023-02-14T03:01:38.071Z,99787.09
2023-02-14T03:04:26.951Z,99781.80
2023-02-14T03:06:56.242Z,99774.46
2023-02-14T03:09:27.177Z,99770.54
2023-02-14T03:12:25.342Z,99768.89
2023-02-14T03:15:18.397Z,99764.53
2023-02-14T03:18:04.172Z,99762.94
2023-02-14T03:20:52.280Z,99766.71
2023-02-14T03:23:25.140Z,99772.40
2023-02-14T03:26:32.498Z,99772.53
2023-02-14T03:29:24.607Z,99771.73
2023-02-14T03:31:54.133Z,99771.96
2023-02-14T03:34:28.968Z,99771.92
2023-02-14T03:37:01.767Z,99772.55
2023-02-14T03:39:53.560Z,99772.79
2023-02-14T03:42:25.453Z,99770.85
2023-02-14T03:44:53.969Z,99763.46
2023-02-14T03:47:25.190Z,99764.02
2023-02-14T03:49:59.939Z,99760.36
2023-02-14T03:52:28.245Z,99761.89
2023-02-14T03:54:57.513Z,99759.50
2023-02-14T03:57:29.136Z,99759.30
2023-02-14T03:59:57.974Z,99753.19
2023-02-14T04:02:59.103Z,99756.27
2023-02-14T04:05:27.888Z,99753.27
2023-02-14T04:07:57.979Z,99749.96
2023-02-14T04:10:26.480Z,99750.48
2023-02-14T04:12:55.824Z,99745.56
2023-02-14T04:15:24.128Z,99748.89
2023-02-14T04:18:15.045Z,99746.77
2023-02-14T04:20:43.490Z,99747.15
2023-02-14T04:23:13.860Z,99749.40
2023-02-14T04:25:43.193Z,99749.67
2023-02-14T04:28:12.718Z,99745.17
2023-02-14T04:30:42.190Z,99743.70
2023-02-14T04:33:10.993Z,99738.69
2023-02-14T04:35:40.102Z,99738.33
2023-02-14T04:38:08.451Z,99736.89
2023-02-14T04:40:37.284Z,99735.23
2023-02-14T04:43:07.589Z,99732.52
2023-02-14T04:45:37.672Z,99729.19
2023-02-14T04:48:06.421Z,99728.36
2023-02-14T04:50:35.480Z,99727.81
2023-02-14T04:53:03.854Z,99726.17
2023-02-14T04:55:33.109Z,99725.36
2023-02-14T04:58:01.516Z,99719.35
2023-02-14T05:00:30.438Z,99722.28
2023-02-14T05:02:58.872Z,99728.09
2023-02-14T05:05:28.027Z,99726.61
2023-02-14T05:07:56.362Z,99720.17
2023-02-14T05:10:24.615Z,99722.48
2023-02-14T05:12:53.015Z,99724.89
2023-02-14T05:15:21.344Z,99725.55
2023-02-14T05:17:50.968Z,99723.97
2023-02-14T05:20:19.673Z,99724.27
2023-02-14T05:22:48.154Z,99725.34
2023-02-14T05:25:16.697Z,99719.98
2023-02-14T05:27:45.502Z,99726.95
2023-02-14T05:30:14.324Z,99724.63
2023-02-14T05:32:43.304Z,99724.96
2023-02-14T05:35:11.585Z,99720.73
2023-02-14T05:37:39.847Z,99715.55
2023-02-14T05:40:09.466Z,99725.10
2023-02-14T05:42:38.031Z,99724.02
2023-02-14T05:45:07.327Z,99722.51
2023-02-14T05:47:35.931Z,99721.31
2023-02-14T05:50:04.800Z,99720.39
2023-02-14T05:52:33.155Z,99721.27
2023-02-14T05:55:01.866Z,99728.29
2023-02-14T05:57:30.368Z,99721.17
2023-02-14T05:59:58.749Z,99711.23
2023-02-14T06:02:27.489Z,99708.30
2023-02-14T06:04:56.586Z,99710.59
2023-02-14T06:07:26.142Z,99705.59
2023-02-14T06:09:54.479Z,99708.65
2023-02-14T06:12:23.011Z,99709.87
2023-02-14T06:14:52.869Z,99708.30
2023-02-14T06:17:21.447Z,99702.62
2023-02-14T06:19:49.987Z,99702.83
2023-02-14T06:22:18.662Z,99701.59
2023-02-14T06:24:49.206Z,99701.91
2023-02-14T06:27:17.544Z,99697.80
2023-02-14T06:29:46.432Z,99698.47
2023-02-14T06:32:15.205Z,99693.75
2023-02-14T06:34:43.537Z,99688.77
2023-02-14T06:37:12.154Z,99685.64
2023-02-14T06:39:40.450Z,99682.17
2023-02-14T06:42:09.606Z,99681.92
2023-02-14T06:44:37.866Z,99682.30
2023-02-14T06:47:06.459Z,99684.69
2023-02-14T06:49:34.948Z,99677.83
2023-02-14T06:52:05.236Z,99677.55
2023-02-14T06:54:34.309Z,99678.55
2023-02-14T06:57:04.821Z,99674.21
2023-02-14T06:59:33.263Z,99671.36
2023-02-14T07:02:01.553Z,99674.33
2023-02-14T07:04:30.322Z,99670.61
2023-02-14T07:06:58.726Z,99670.05
2023-02-14T07:09:27.427Z,99669.60
2023-02-14T07:11:55.686Z,99672.40
2023-02-14T07:14:29.669Z,99670.11
2023-02-14T07:16:57.965Z,99663.44
2023-02-14T07:19:26.541Z,99657.55
2023-02-14T07:21:54.818Z,99657.19
2023-02-14T07:24:23.393Z,99655.48
2023-02-14T07:26:51.832Z,99654.85
2023-02-14T07:29:20.369Z,99653.38
2023-02-14T07:31:48.701Z,99650.98
2023-02-14T07:34:17.115Z,99653.23
2023-02-14T07:36:45.485Z,99653.95
2023-02-14T07:39:13.979Z,99654.14
2023-02-14T07:41:42.420Z,99653.48
2023-02-14T07:44:11.406Z,99658.16
2023-02-14T07:46:39.782Z,99659.77
2023-02-14T07:49:08.886Z,99657.39
2023-02-14T07:51:37.319Z,99652.90
2023-02-14T07:54:05.664Z,99650.50
2023-02-14T07:56:34.492Z,99653.02
2023-02-14T07:59:02.899Z,99653.11
2023-02-14T08:01:33.044Z,99653.00
2023-02-14T08:04:01.406Z,99657.45
2023-02-14T08:06:29.804Z,99654.48
2023-02-14T08:08:58.837Z,99649.71
2023-02-14T08:11:45.943Z,99658.31
2023-02-14T08:14:14.203Z,99658.10
2023-02-14T08:16:42.459Z,99653.31
2023-02-14T08:19:11.087Z,99650.25
2023-02-14T08:21:39.315Z,99646.53
2023-02-14T08:24:07.833Z,99646.80
2023-02-14T08:26:36.678Z,99643.14
2023-02-14T08:29:05.875Z,99636.92
2023-02-14T08:31:36.105Z,99627.41
2023-02-14T08:34:05.603Z,99618.27
2023-02-14T08:36:35.631Z,99618.14
2023-02-14T08:39:04.471Z,99614.23
2023-02-14T08:41:33.428Z,99613.95
2023-02-14T08:44:02.139Z,99618.55
2023-02-14T08:46:31.001Z,99619.48
2023-02-14T08:48:59.766Z,99620.83
2023-02-14T08:51:29.243Z,99622.71
2023-02-14T08:53:57.532Z,99621.86
2023-02-14T08:56:26.352Z,99622.84
2023-02-14T08:58:54.941Z,99620.23
2023-02-14T09:01:23.316Z,99622.11
2023-02-14T09:03:54.230Z,99620.38
2023-02-14T09:06:22.744Z,99613.21
2023-02-14T09:08:51.742Z,99613.95
2023-02-14T09:11:22.417Z,99612.66
2023-02-14T09:13:53.227Z,99609.02
2023-02-14T09:16:22.627Z,99605.46
2023-02-14T09:18:51.660Z,99607.66
2023-02-14T09:21:21.775Z,99608.21
2023-02-14T09:24:10.005Z,99610.15
2023-02-14T09:26:40.951Z,99613.84
2023-02-14T09:29:11.311Z,99611.44
2023-02-14T09:31:42.581Z,99608.73
2023-02-14T09:34:29.680Z,99609.27
2023-02-14T09:36:57.895Z,99606.05
2023-02-14T09:39:26.241Z,99607.20
2023-02-14T09:41:57.330Z,99610.09
2023-02-14T09:44:41.194Z,99608.92
2023-02-14T09:47:17.376Z,99608.13
2023-02-14T09:49:46.917Z,99602.71
2023-02-14T09:52:16.678Z,99601.09
2023-02-14T09:54:48.026Z,99600.05
2023-02-14T09:57:25.053Z,99596.84
2023-02-14T10:00:05.832Z,99596.64
2023-02-14T10:02:40.621Z,99595.55
2023-02-14T10:05:29.071Z,99595.00
2023-02-14T10:08:06.127Z,99589.34
2023-02-14T10:10:39.593Z,99594.22
2023-02-14T10:13:27.061Z,99594.93
2023-02-14T10:16:32.640Z,99603.48
2023-02-14T10:19:29.186Z,99605.04
2023-02-14T10:22:08.674Z,99610.76
2023-02-14T10:24:47.637Z,99614.41
2023-02-14T10:27:42.402Z,99619.27
2023-02-14T10:30:18.968Z,99613.20
2023-02-14T10:33:19.462Z,99612.05
2023-02-14T10:35:52.540Z,99611.95
2023-02-14T10:38:40.947Z,99605.08
2023-02-14T10:41:18.764Z,99601.19
2023-02-14T10:44:24.622Z,99603.87
2023-02-14T10:47:14.968Z,99613.58
2023-02-14T10:50:06.745Z,99619.16
2023-02-14T10:52:38.023Z,99617.92
2023-02-14T10:55:30.089Z,99618.83
2023-02-14T10:58:01.171Z,99617.20
2023-02-14T11:00:33.027Z,99614.66
2023-02-14T11:03:05.561Z,99612.42
2023-02-14T11:05:40.037Z,99614.30
2023-02-14T11:08:26.366Z,99606.35
2023-02-14T11:11:03.656Z,99601.20
2023-02-14T11:13:35.768Z,99594.98
2023-02-14T11:16:11.323Z,99588.39
2023-02-14T11:18:41.111Z,99588.04
2023-02-14T11:21:11.686Z,99592.86
2023-02-14T11:23:49.672Z,99590.67
2023-02-14T11:26:25.922Z,99593.73
2023-02-14T11:28:56.675Z,99594.15
2023-02-14T11:31:30.343Z,99595.52
2023-02-14T11:33:58.944Z,99600.63
2023-02-14T11:36:27.461Z,99598.59
2023-02-14T11:39:17.509Z,99599.13
2023-02-14T11:41:49.856Z,99602.48
2023-02-14T11:44:22.885Z,99602.80
2023-02-14T11:46:53.550Z,99605.20
2023-02-14T11:49:27.696Z,99599.16
2023-02-14T11:52:15.918Z,99594.35
2023-02-14T11:54:48.563Z,99593.36
2023-02-14T11:57:37.662Z,99594.02
2023-02-14T12:00:17.007Z,99594.35
2023-02-14T12:02:49.312Z,99598.05
2023-02-14T12:05:48.782Z,99603.91
2023-02-14T12:08:17.000Z,99605.07
2023-02-14T12:10:47.028Z,99606.86
2023-02-14T12:13:18.554Z,99607.80
2023-02-14T12:15:49.098Z,99606.83
2023-02-14T12:18:32.712Z,99612.16
2023-02-14T12:21:23.218Z,99612.44
2023-02-14T12:23:57.185Z,99607.86
2023-02-14T12:26:47.872Z,99609.42
2023-02-14T12:29:35.273Z,99609.61
2023-02-14T12:32:13.727Z,99610.95
2023-02-14T12:34:42.506Z,99612.08
2023-02-14T12:37:48.784Z,99616.89
2023-02-14T12:40:30.530Z,99616.27
2023-02-14T12:43:20.494Z,99618.10
2023-02-14T12:45:49.612Z,99619.81
2023-02-14T12:48:56.589Z,99621.48
2023-02-14T12:51:27.837Z,99622.25
2023-02-14T12:54:35.042Z,99625.15
2023-02-14T12:57:41.508Z,99630.23
2023-02-14T13:00:09.941Z,99632.23
2023-02-14T13:02:53.201Z,99632.48
2023-02-14T13:05:40.326Z,99636.09
2023-02-14T13:08:18.920Z,99642.59
2023-02-14T13:11:09.227Z,99639.89
2023-02-14T13:13:52.891Z,99645.50
2023-02-14T13:16:26.539Z,99646.06
2023-02-14T13:19:16.423Z,99647.06
2023-02-14T13:21:44.809Z,99642.27
2023-02-14T13:24:41.982Z,99644.59
2023-02-14T13:27:14.169Z,99648.84
2023-02-14T13:29:45.837Z,99650.13
2023-02-14T13:32:15.793Z,99650.15
2023-02-14T13:34:48.049Z,99652.36
2023-02-14T13:37:18.714Z,99651.63
2023-02-14T13:40:17.692Z,99655.16
2023-02-14T13:42:51.738Z,99656.48
2023-02-14T13:45:35.338Z,99658.30
2023-02-14T13:48:20.418Z,99663.36
2023-02-14T13:51:06.094Z,99666.89
2023-02-14T13:53:35.056Z,99667.45
2023-02-14T13:56:15.512Z,99670.52
2023-02-14T13:58:47.744Z,99677.60
2023-02-14T14:01:41.991Z,99680.29
2023-02-14T14:04:27.988Z,99682.95
2023-02-14T14:07:05.308Z,99682.09
2023-02-14T14:09:43.196Z,99682.25
2023-02-14T14:12:37.865Z,99685.74
2023-02-14T14:15:08.117Z,99684.22
2023-02-14T14:17:46.092Z,99683.20
2023-02-14T14:20:21.842Z,99681.16
2023-02-14T14:22:55.167Z,99683.10
2023-02-14T14:25:33.975Z,99683.27
2023-02-14T14:28:02.262Z,99684.06
2023-02-14T14:30:33.116Z,99685.45
2023-02-14T14:33:23.205Z,99690.88
2023-02-14T14:36:02.831Z,99689.24
2023-02-14T14:38:31.775Z,99694.23
2023-02-14T14:41:01.141Z,99697.48
2023-02-14T14:43:36.445Z,99700.01
2023-02-14T14:46:05.040Z,99703.77
2023-02-14T14:48:51.693Z,99707.48
2023-02-14T14:51:24.004Z,99711.77
2023-02-14T14:53:57.800Z,99710.66
2023-02-14T14:56:27.974Z,99713.90
2023-02-14T14:58:56.483Z,99716.91
2023-02-14T15:01:44.256Z,99718.36
2023-02-14T15:04:17.583Z,99720.50
2023-02-14T15:06:47.073Z,99720.63
2023-02-14T15:09:17.246Z,99725.45
2023-02-14T15:12:06.615Z,99724.40
2023-02-14T15:14:37.626Z,99728.33
2023-02-14T15:17:15.356Z,99733.11
2023-02-14T15:19:45.173Z,99736.09
2023-02-14T15:22:25.904Z,99740.11
2023-02-14T15:25:00.513Z,99744.27
2023-02-14T15:27:29.732Z,99745.27
2023-02-14T15:30:03.751Z,99752.56
2023-02-14T15:32:33.434Z,99755.06
2023-02-14T15:35:05.457Z,99756.98
2023-02-14T15:37:34.649Z,99759.83
2023-02-14T15:40:08.871Z,99763.52
2023-02-14T15:42:40.913Z,99765.84
2023-02-14T15:45:15.233Z,99765.08
2023-02-14T15:47:44.882Z,99766.41
2023-02-14T15:50:18.265Z,99769.19
2023-02-14T15:52:46.989Z,99773.60
2023-02-14T15:55:17.802Z,99776.56
2023-02-14T15:57:48.650Z,99778.79
2023-02-14T16:00:22.760Z,99774.82
2023-02-14T16:02:56.631Z,99780.00
2023-02-14T16:05:25.566Z,99781.73
2023-02-14T16:08:06.196Z,99785.09
2023-02-14T16:10:38.182Z,99788.80
2023-02-14T16:13:34.400Z,99786.50
2023-02-14T16:16:07.482Z,99789.52
2023-02-14T16:18:42.754Z,99792.04
2023-02-14T16:21:27.791Z,99796.02
2023-02-14T16:24:10.945Z,99801.17
2023-02-14T16:26:43.164Z,99797.44
2023-02-14T16:29:13.245Z,99798.81
2023-02-14T16:32:16.122Z,99798.80
2023-02-14T16:34:47.460Z,99796.92
2023-02-14T16:37:20.671Z,99798.56
2023-02-14T16:39:50.728Z,99796.31
2023-02-14T16:42:21.484Z,99796.31
2023-02-14T16:44:50.477Z,99800.81
2023-02-14T16:47:19.844Z,99805.13
2023-02-14T16:49:48.742Z,99805.26
2023-02-14T16:52:18.844Z,99807.10
2023-02-14T16:54:47.205Z,99807.80
2023-02-14T16:57:27.809Z,99810.20
2023-02-14T16:59:56.828Z,99814.29
2023-02-14T17:02:28.627Z,99817.03
2023-02-14T17:04:57.297Z,99821.10
2023-02-14T17:07:25.757Z,99822.70
2023-02-14T17:09:57.741Z,99823.96
2023-02-14T17:12:29.716Z,99829.11
2023-02-14T17:14:59.555Z,99831.11
2023-02-14T17:17:27.832Z,99834.48
2023-02-14T17:19:56.560Z,99835.80
2023-02-14T17:22:25.400Z,99841.09
2023-02-14T17:24:55.093Z,99840.22
2023-02-14T17:27:24.429Z,99844.42
2023-02-14T17:29:52.747Z,99843.81
2023-02-14T17:32:21.377Z,99851.13
2023-02-14T17:34:49.969Z,99849.88
2023-02-14T17:37:19.099Z,99849.79
2023-02-14T17:39:47.327Z,99850.20
2023-02-14T17:42:15.826Z,99850.08
2023-02-14T17:44:44.864Z,99855.51
2023-02-14T17:47:14.908Z,99857.92
2023-02-14T17:49:44.351Z,99860.00
2023-02-14T17:52:15.915Z,99867.17
2023-02-14T17:54:44.208Z,99870.45
2023-02-14T17:57:14.980Z,99873.27
2023-02-14T17:59:45.542Z,99873.01
2023-02-14T18:02:14.175Z,99872.67
2023-02-14T18:04:42.511Z,99872.52
2023-02-14T18:07:11.833Z,99875.29
2023-02-14T18:09:40.098Z,99874.75
2023-02-14T18:12:14.636Z,99875.03
2023-02-14T18:14:44.427Z,99875.80
2023-02-14T18:17:13.729Z,99876.39
2023-02-14T18:19:43.118Z,99877.58
2023-02-14T18:22:11.369Z,99878.09
2023-02-14T18:24:40.418Z,99883.40
2023-02-14T18:27:09.662Z,99888.39
2023-02-14T18:29:39.467Z,99889.80
2023-02-14T18:32:07.930Z,99892.15
2023-02-14T18:34:40.129Z,99894.70
2023-02-14T18:37:12.604Z,99896.56
2023-02-14T18:39:44.418Z,99898.59
2023-02-14T18:42:12.913Z,99900.77
2023-02-14T18:44:41.243Z,99903.39
2023-02-14T18:47:10.250Z,99906.17
2023-02-14T18:49:39.015Z,99910.84
2023-02-14T18:52:07.428Z,99908.42
2023-02-14T18:54:35.766Z,99912.89
2023-02-14T18:57:04.362Z,99915.73
2023-02-14T18:59:32.590Z,99913.15
2023-02-14T19:02:00.913Z,99909.13
2023-02-14T19:04:30.105Z,99916.45
2023-02-14T19:06:59.936Z,99917.42
2023-02-14T19:09:30.166Z,99920.23
2023-02-14T19:12:04.405Z,99923.30
2023-02-14T19:14:33.011Z,99929.78
2023-02-14T19:17:01.602Z,99927.98
2023-02-14T19:19:30.865Z,99934.11
2023-02-14T19:21:59.561Z,99936.92
2023-02-14T19:24:27.800Z,99937.13
2023-02-14T19:26:57.926Z,99939.45
2023-02-14T19:29:27.117Z,99938.16
2023-02-14T19:31:55.942Z,99937.23
2023-02-14T19:34:28.242Z,99940.50
2023-02-14T19:36:59.834Z,99943.39
2023-02-14T19:39:32.219Z,99946.23
2023-02-14T19:42:00.994Z,99948.85
2023-02-14T19:44:31.264Z,99947.09
2023-02-14T19:47:04.174Z,99950.15
2023-02-14T19:49:36.295Z,99954.96
2023-02-14T19:52:06.272Z,99957.59
2023-02-14T19:54:40.954Z,99961.31
2023-02-14T19:57:12.840Z,99965.73
2023-02-14T19:59:41.209Z,99963.79
2023-02-14T20:02:16.888Z,99965.70
2023-02-14T20:04:45.406Z,99970.55
2023-02-14T20:07:14.102Z,99969.21
2023-02-14T20:09:42.930Z,99968.45
2023-02-14T20:12:11.468Z,99972.66
2023-02-14T20:14:53.444Z,99971.98
2023-02-14T20:17:22.605Z,99973.88
2023-02-14T20:19:51.053Z,99974.19
2023-02-14T20:22:20.702Z,99975.36
2023-02-14T20:24:49.178Z,99973.11
2023-02-14T20:27:17.872Z,99969.35
2023-02-14T20:29:46.162Z,99964.14
2023-02-14T20:32:15.551Z,99969.19
2023-02-14T20:34:44.907Z,99971.48
2023-02-14T20:37:13.283Z,99974.90
2023-02-14T20:39:41.780Z,99973.83
2023-02-14T20:42:10.140Z,99982.80
2023-02-14T20:44:38.816Z,99978.19
2023-02-14T20:47:07.297Z,99985.81
2023-02-14T20:49:36.413Z,99984.09
2023-02-14T20:52:04.906Z,99985.65
2023-02-14T20:54:35.907Z,99986.73
2023-02-14T20:57:05.012Z,99986.29
2023-02-14T20:59:33.649Z,99987.09
2023-02-14T21:02:02.089Z,99984.13
2023-02-14T21:04:30.911Z,99983.70
2023-02-14T21:07:00.530Z,99987.31
2023-02-14T21:09:33.074Z,99989.75
2023-02-14T21:12:01.338Z,99995.95
2023-02-14T21:14:30.310Z,99999.81
2023-02-14T21:16:59.096Z,100002.56
2023-02-14T21:19:28.679Z,100006.34
2023-02-14T21:21:57.306Z,100009.42
2023-02-14T21:24:25.923Z,100006.73
2023-02-14T21:26:54.430Z,100007.78
2023-02-14T21:29:23.606Z,100003.22
2023-02-14T21:31:52.050Z,100002.58
2023-02-14T21:34:20.569Z,100002.55
2023-02-14T21:36:49.114Z,100004.30
2023-02-14T21:39:19.133Z,100009.79
2023-02-14T21:41:47.485Z,100015.89
2023-02-14T21:44:35.710Z,100022.92
2023-02-14T21:47:04.426Z,100026.63
2023-02-14T21:49:51.635Z,100024.98
2023-02-14T21:52:19.945Z,100030.30
2023-02-14T21:54:48.303Z,100032.46
2023-02-14T21:57:16.808Z,100032.91
2023-02-14T21:59:46.176Z,100034.70
2023-02-14T22:04:45.815Z,100034.60
2023-02-14T22:07:14.184Z,100036.65
2023-02-14T22:09:46.568Z,100034.64
2023-02-14T22:12:15.833Z,100030.76
2023-02-14T22:14:44.349Z,100031.34
2023-02-14T22:17:19.372Z,100032.02
2023-02-14T22:19:47.780Z,100033.16
2023-02-14T22:22:16.340Z,100033.87
2023-02-14T22:24:44.919Z,100036.33
2023-02-14T22:27:13.508Z,100036.10
2023-02-14T22:29:42.504Z,100035.62
2023-02-14T22:32:11.291Z,100040.84
2023-02-14T22:34:39.967Z,100042.94
2023-02-14T22:37:08.451Z,100040.20
2023-02-14T22:39:37.147Z,100042.78
2023-02-14T22:42:07.128Z,100051.69
2023-02-14T22:44:36.451Z,100054.97
2023-02-14T22:47:08.015Z,100056.25
2023-02-14T22:49:36.690Z,100057.91
2023-02-14T22:52:05.584Z,100058.60
2023-02-14T22:54:34.091Z,100063.02
2023-02-14T22:57:02.820Z,100064.61
2023-02-14T22:59:32.465Z,100067.35
2023-02-14T23:02:01.817Z,100070.98
2023-02-14T23:04:30.654Z,100075.09
2023-02-14T23:06:59.194Z,100076.24
2023-02-14T23:09:28.634Z,100081.04
2023-02-14T23:11:59.394Z,100085.61
2023-02-14T23:14:47.104Z,100086.13
2023-02-14T23:17:18.823Z,100084.41
2023-02-14T23:20:06.551Z,100094.63
2023-02-14T23:22:41.261Z,100096.52
2023-02-14T23:25:11.025Z,100097.82
2023-02-14T23:27:47.372Z,100096.02
2023-02-14T23:30:18.029Z,100093.85
2023-02-14T23:32:46.931Z,100092.70
2023-02-14T23:35:15.445Z,100096.09
2023-02-14T23:37:44.289Z,100097.36
2023-02-14T23:40:14.347Z,100102.20
2023-02-14T23:42:42.847Z,100104.96
2023-02-14T23:45:31.293Z,100105.04
2023-02-14T23:48:03.922Z,100108.86
2023-02-14T23:50:32.716Z,100108.40
2023-02-14T23:53:01.188Z,100106.57
2023-02-14T23:55:30.851Z,100109.44
2023-02-14T23:57:59.416Z,100108.44
